sensor_id;sensor_type;location;lat;lon;timestamp;temperature;humidity
17948;DHT22;9099;47.958;11.366;2022-08-04T00:00:30;21.90;99.90
17948;DHT22;9099;47.958;11.366;2022-08-04T00:03:11;21.80;99.90
17948;DHT22;9099;47.958;11.366;2022-08-04T00:05:53;21.90;99.90
17948;DHT22;9099;47.958;11.366;2022-08-04T00:08:32;21.90;99.90
17948;DHT22;9099;47.958;11.366;2022-08-04T00:11:00;21.80;99.90
17948;DHT22;9099;47.958;11.366;2022-08-04T00:13:30;21.80;99.90
17948;DHT22;9099;47.958;11.366;2022-08-04T00:16:01;21.70;99.90
17948;DHT22;9099;47.958;11.366;2022-08-04T00:18:33;21.70;99.90
17948;DHT22;9099;47.958;11.366;2022-08-04T00:21:09;21.70;99.90
17948;DHT22;9099;47.958;11.366;2022-08-04T00:23:38;21.60;99.90
17948;DHT22;9099;47.958;11.366;2022-08-04T00:26:06;21.40;99.90
17948;DHT22;9099;47.958;11.366;2022-08-04T00:28:36;21.40;99.90
17948;DHT22;9099;47.958;11.366;2022-08-04T00:31:03;21.20;99.90
17948;DHT22;9099;47.958;11.366;2022-08-04T00:33:31;21.20;99.90
17948;DHT22;9099;47.958;11.366;2022-08-04T00:35:59;21.20;99.90
17948;DHT22;9099;47.958;11.366;2022-08-04T00:38:26;21.20;99.90
17948;DHT22;9099;47.958;11.366;2022-08-04T00:41:03;21.20;99.90
17948;DHT22;9099;47.958;11.366;2022-08-04T00:43:34;21.30;99.90
17948;DHT22;9099;47.958;11.366;2022-08-04T00:46:22;21.30;99.90
17948;DHT22;9099;47.958;11.366;2022-08-04T00:49:20;21.30;99.90
17948;DHT22;9099;47.958;11.366;2022-08-04T00:51:50;21.20;99.90
17948;DHT22;9099;47.958;11.366;2022-08-04T00:54:29;21.20;99.90
17948;DHT22;9099;47.958;11.366;2022-08-04T00:57:07;21.20;99.90
17948;DHT22;9099;47.958;11.366;2022-08-04T00:59:49;21.20;99.90
17948;DHT22;9099;47.958;11.366;2022-08-04T01:02:25;21.10;99.90
17948;DHT22;9099;47.958;11.366;2022-08-04T01:05:02;21.10;99.90
17948;DHT22;9099;47.958;11.366;2022-08-04T01:07:40;21.00;99.90
17948;DHT22;9099;47.958;11.366;2022-08-04T01:10:11;21.00;99.90
17948;DHT22;9099;47.958;11.366;2022-08-04T01:13:04;20.90;99.90
17948;DHT22;9099;47.958;11.366;2022-08-04T01:15:39;20.90;99.90
17948;DHT22;9099;47.958;11.366;2022-08-04T01:18:20;20.90;99.90
17948;DHT22;9099;47.958;11.366;2022-08-04T01:20:57;20.80;99.90
17948;DHT22;9099;47.958;11.366;2022-08-04T01:24:15;20.80;99.90
17948;DHT22;9099;47.958;11.366;2022-08-04T01:26:52;20.80;99.90
17948;DHT22;9099;47.958;11.366;2022-08-04T01:29:24;20.70;99.90
17948;DHT22;9099;47.958;11.366;2022-08-04T01:31:59;20.60;99.90
17948;DHT22;9099;47.958;11.366;2022-08-04T01:34:29;20.50;99.90
17948;DHT22;9099;47.958;11.366;2022-08-04T01:37:09;20.40;99.90
17948;DHT22;9099;47.958;11.366;2022-08-04T01:39:41;20.40;99.90
17948;DHT22;9099;47.958;11.366;2022-08-04T01:42:10;20.30;99.90
17948;DHT22;9099;47.958;11.366;2022-08-04T01:44:39;20.30;99.90
17948;DHT22;9099;47.958;11.366;2022-08-04T01:47:08;20.20;99.90
17948;DHT22;9099;47.958;11.366;2022-08-04T01:49:37;20.20;99.90
17948;DHT22;9099;47.958;11.366;2022-08-04T01:52:07;20.10;99.90
17948;DHT22;9099;47.958;11.366;2022-08-04T01:54:37;20.00;99.90
17948;DHT22;9099;47.958;11.366;2022-08-04T01:57:08;20.00;99.90
17948;DHT22;9099;47.958;11.366;2022-08-04T01:59:38;20.00;99.90
17948;DHT22;9099;47.958;11.366;2022-08-04T02:02:05;19.90;99.90
17948;DHT22;9099;47.958;11.366;2022-08-04T02:04:34;19.90;99.90
17948;DHT22;9099;47.958;11.366;2022-08-04T02:07:10;19.90;99.90
17948;DHT22;9099;47.958;11.366;2022-08-04T02:09:46;19.80;99.90
17948;DHT22;9099;47.958;11.366;2022-08-04T02:12:24;19.80;99.90
17948;DHT22;9099;47.958;11.366;2022-08-04T02:14:59;19.70;99.90
17948;DHT22;9099;47.958;11.366;2022-08-04T02:17:30;19.60;99.90
17948;DHT22;9099;47.958;11.366;2022-08-04T02:20:05;19.60;99.90
17948;DHT22;9099;47.958;11.366;2022-08-04T02:22:34;19.60;99.90
17948;DHT22;9099;47.958;11.366;2022-08-04T02:25:06;19.60;99.90
17948;DHT22;9099;47.958;11.366;2022-08-04T02:27:52;19.60;99.90
17948;DHT22;9099;47.958;11.366;2022-08-04T02:30:27;19.50;99.90
17948;DHT22;9099;47.958;11.366;2022-08-04T02:33:00;19.40;99.90
17948;DHT22;9099;47.958;11.366;2022-08-04T02:35:28;19.40;99.90
17948;DHT22;9099;47.958;11.366;2022-08-04T02:38:09;19.40;99.90
17948;DHT22;9099;47.958;11.366;2022-08-04T02:40:38;19.30;99.90
17948;DHT22;9099;47.958;11.366;2022-08-04T02:43:07;19.20;99.90
17948;DHT22;9099;47.958;11.366;2022-08-04T02:45:36;19.20;99.90
17948;DHT22;9099;47.958;11.366;2022-08-04T02:48:07;19.10;99.90
17948;DHT22;9099;47.958;11.366;2022-08-04T02:50:36;19.00;99.90
17948;DHT22;9099;47.958;11.366;2022-08-04T02:53:04;19.00;99.90
17948;DHT22;9099;47.958;11.366;2022-08-04T02:55:35;18.90;99.90
17948;DHT22;9099;47.958;11.366;2022-08-04T02:58:03;18.80;99.90
17948;DHT22;9099;47.958;11.366;2022-08-04T03:00:31;18.70;99.90
17948;DHT22;9099;47.958;11.366;2022-08-04T03:03:10;18.70;99.90
17948;DHT22;9099;47.958;11.366;2022-08-04T03:05:54;18.50;99.90
17948;DHT22;9099;47.958;11.366;2022-08-04T03:08:57;18.50;99.90
17948;DHT22;9099;47.958;11.366;2022-08-04T03:20:59;18.40;99.90
17948;DHT22;9099;47.958;11.366;2022-08-04T03:27:01;18.40;99.90
17948;DHT22;9099;47.958;11.366;2022-08-04T03:29:51;18.40;99.90
17948;DHT22;9099;47.958;11.366;2022-08-04T03:39:02;18.40;99.90
17948;DHT22;9099;47.958;11.366;2022-08-04T03:41:49;18.30;99.90
17948;DHT22;9099;47.958;11.366;2022-08-04T03:44:54;18.20;99.90
17948;DHT22;9099;47.958;11.366;2022-08-04T03:47:37;18.30;99.90
17948;DHT22;9099;47.958;11.366;2022-08-04T03:53:23;18.40;99.90
17948;DHT22;9099;47.958;11.366;2022-08-04T04:02:13;18.50;99.90
17948;DHT22;9099;47.958;11.366;2022-08-04T04:04:59;18.50;99.90
17948;DHT22;9099;47.958;11.366;2022-08-04T04:07:54;18.50;99.90
17948;DHT22;9099;47.958;11.366;2022-08-04T04:10:39;18.50;99.90
17948;DHT22;9099;47.958;11.366;2022-08-04T04:19:44;18.80;99.90
17948;DHT22;9099;47.958;11.366;2022-08-04T04:22:26;18.90;99.90
17948;DHT22;9099;47.958;11.366;2022-08-04T04:25:03;18.90;99.90
17948;DHT22;9099;47.958;11.366;2022-08-04T04:27:42;18.90;99.90
17948;DHT22;9099;47.958;11.366;2022-08-04T04:30:16;18.90;99.90
17948;DHT22;9099;47.958;11.366;2022-08-04T04:33:05;18.80;99.90
17948;DHT22;9099;47.958;11.366;2022-08-04T04:35:40;18.70;99.90
17948;DHT22;9099;47.958;11.366;2022-08-04T04:38:34;18.60;99.90
17948;DHT22;9099;47.958;11.366;2022-08-04T04:44:23;18.30;99.90
17948;DHT22;9099;47.958;11.366;2022-08-04T04:47:00;18.30;99.90
17948;DHT22;9099;47.958;11.366;2022-08-04T04:49:33;18.40;99.90
17948;DHT22;9099;47.958;11.366;2022-08-04T04:52:11;18.50;99.90
17948;DHT22;9099;47.958;11.366;2022-08-04T04:54:44;18.70;99.90
17948;DHT22;9099;47.958;11.366;2022-08-04T04:57:17;18.80;99.90
17948;DHT22;9099;47.958;11.366;2022-08-04T04:59:48;18.90;99.90
17948;DHT22;9099;47.958;11.366;2022-08-04T05:02:35;19.00;99.90
17948;DHT22;9099;47.958;11.366;2022-08-04T05:05:19;19.10;99.90
17948;DHT22;9099;47.958;11.366;2022-08-04T05:10:57;19.20;99.90
17948;DHT22;9099;47.958;11.366;2022-08-04T05:13:35;19.30;99.90
17948;DHT22;9099;47.958;11.366;2022-08-04T05:16:08;19.50;99.90
17948;DHT22;9099;47.958;11.366;2022-08-04T05:18:39;19.60;99.90
17948;DHT22;9099;47.958;11.366;2022-08-04T05:21:18;19.70;99.90
17948;DHT22;9099;47.958;11.366;2022-08-04T05:23:51;19.80;99.90
17948;DHT22;9099;47.958;11.366;2022-08-04T05:26:24;19.90;99.90
17948;DHT22;9099;47.958;11.366;2022-08-04T05:28:56;20.10;99.90
17948;DHT22;9099;47.958;11.366;2022-08-04T05:31:25;20.20;99.90
17948;DHT22;9099;47.958;11.366;2022-08-04T05:33:56;20.40;99.90
17948;DHT22;9099;47.958;11.366;2022-08-04T05:36:29;20.60;99.90
17948;DHT22;9099;47.958;11.366;2022-08-04T05:39:01;20.90;99.90
17948;DHT22;9099;47.958;11.366;2022-08-04T05:41:28;21.30;99.90
17948;DHT22;9099;47.958;11.366;2022-08-04T05:43:57;21.60;99.90
17948;DHT22;9099;47.958;11.366;2022-08-04T05:46:26;22.10;99.90
17948;DHT22;9099;47.958;11.366;2022-08-04T05:48:53;22.50;99.90
17948;DHT22;9099;47.958;11.366;2022-08-04T05:51:21;22.80;99.90
17948;DHT22;9099;47.958;11.366;2022-08-04T05:53:49;23.30;99.90
17948;DHT22;9099;47.958;11.366;2022-08-04T05:56:18;23.90;99.90
17948;DHT22;9099;47.958;11.366;2022-08-04T05:58:45;24.50;99.90
17948;DHT22;9099;47.958;11.366;2022-08-04T06:01:14;25.10;99.90
17948;DHT22;9099;47.958;11.366;2022-08-04T06:03:43;25.60;99.90
17948;DHT22;9099;47.958;11.366;2022-08-04T06:06:13;26.30;99.90
17948;DHT22;9099;47.958;11.366;2022-08-04T06:08:40;26.80;99.90
17948;DHT22;9099;47.958;11.366;2022-08-04T06:11:08;27.50;99.90
17948;DHT22;9099;47.958;11.366;2022-08-04T06:13:42;28.10;99.90
17948;DHT22;9099;47.958;11.366;2022-08-04T06:16:11;28.50;99.90
17948;DHT22;9099;47.958;11.366;2022-08-04T06:18:39;28.70;99.90
17948;DHT22;9099;47.958;11.366;2022-08-04T06:21:10;28.90;99.90
17948;DHT22;9099;47.958;11.366;2022-08-04T06:23:40;28.90;99.90
17948;DHT22;9099;47.958;11.366;2022-08-04T06:26:10;28.60;99.90
17948;DHT22;9099;47.958;11.366;2022-08-04T06:28:45;28.10;99.90
17948;DHT22;9099;47.958;11.366;2022-08-04T06:31:13;27.60;99.90
17948;DHT22;9099;47.958;11.366;2022-08-04T06:33:47;27.40;99.90
17948;DHT22;9099;47.958;11.366;2022-08-04T06:36:14;27.40;99.90
17948;DHT22;9099;47.958;11.366;2022-08-04T06:38:42;27.20;99.90
17948;DHT22;9099;47.958;11.366;2022-08-04T06:41:09;27.00;99.90
17948;DHT22;9099;47.958;11.366;2022-08-04T06:43:37;26.80;99.90
17948;DHT22;9099;47.958;11.366;2022-08-04T06:46:06;26.60;99.90
17948;DHT22;9099;47.958;11.366;2022-08-04T06:48:34;26.60;99.90
17948;DHT22;9099;47.958;11.366;2022-08-04T06:51:02;26.60;99.90
17948;DHT22;9099;47.958;11.366;2022-08-04T06:53:29;26.60;99.90
17948;DHT22;9099;47.958;11.366;2022-08-04T06:55:56;26.60;99.90
17948;DHT22;9099;47.958;11.366;2022-08-04T06:58:25;26.60;99.90
17948;DHT22;9099;47.958;11.366;2022-08-04T07:00:53;26.50;99.90
17948;DHT22;9099;47.958;11.366;2022-08-04T07:03:27;26.50;99.90
17948;DHT22;9099;47.958;11.366;2022-08-04T07:05:55;26.50;99.90
17948;DHT22;9099;47.958;11.366;2022-08-04T07:08:22;26.50;99.90
17948;DHT22;9099;47.958;11.366;2022-08-04T07:10:49;26.50;99.90
17948;DHT22;9099;47.958;11.366;2022-08-04T07:13:18;26.50;99.90
17948;DHT22;9099;47.958;11.366;2022-08-04T07:15:47;26.70;99.90
17948;DHT22;9099;47.958;11.366;2022-08-04T07:18:14;26.80;99.90
17948;DHT22;9099;47.958;11.366;2022-08-04T07:20:43;26.80;99.90
17948;DHT22;9099;47.958;11.366;2022-08-04T07:23:11;26.90;99.90
17948;DHT22;9099;47.958;11.366;2022-08-04T07:25:42;26.90;99.90
17948;DHT22;9099;47.958;11.366;2022-08-04T07:28:09;26.90;99.90
17948;DHT22;9099;47.958;11.366;2022-08-04T07:30:36;26.90;99.90
17948;DHT22;9099;47.958;11.366;2022-08-04T07:33:05;26.90;99.90
17948;DHT22;9099;47.958;11.366;2022-08-04T07:35:33;27.10;99.90
17948;DHT22;9099;47.958;11.366;2022-08-04T07:38:02;27.30;99.90
17948;DHT22;9099;47.958;11.366;2022-08-04T07:40:29;27.40;99.90
17948;DHT22;9099;47.958;11.366;2022-08-04T07:42:56;27.40;99.90
17948;DHT22;9099;47.958;11.366;2022-08-04T07:45:24;27.50;99.90
17948;DHT22;9099;47.958;11.366;2022-08-04T07:47:50;27.60;99.90
17948;DHT22;9099;47.958;11.366;2022-08-04T07:50:18;27.90;99.90
17948;DHT22;9099;47.958;11.366;2022-08-04T07:52:46;28.10;99.90
17948;DHT22;9099;47.958;11.366;2022-08-04T07:55:15;28.10;99.90
17948;DHT22;9099;47.958;11.366;2022-08-04T07:57:42;28.40;99.90
17948;DHT22;9099;47.958;11.366;2022-08-04T08:00:11;28.60;99.90
17948;DHT22;9099;47.958;11.366;2022-08-04T08:02:40;28.60;99.90
17948;DHT22;9099;47.958;11.366;2022-08-04T08:05:09;28.70;99.90
17948;DHT22;9099;47.958;11.366;2022-08-04T08:07:37;28.80;99.90
17948;DHT22;9099;47.958;11.366;2022-08-04T08:10:04;29.00;99.90
17948;DHT22;9099;47.958;11.366;2022-08-04T08:12:39;29.20;99.90
17948;DHT22;9099;47.958;11.366;2022-08-04T08:15:08;29.60;99.90
17948;DHT22;9099;47.958;11.366;2022-08-04T08:17:36;29.80;99.90
17948;DHT22;9099;47.958;11.366;2022-08-04T08:20:04;29.90;99.90
17948;DHT22;9099;47.958;11.366;2022-08-04T08:22:31;30.30;99.90
17948;DHT22;9099;47.958;11.366;2022-08-04T08:24:59;30.30;99.90
17948;DHT22;9099;47.958;11.366;2022-08-04T08:27:26;30.30;99.90
17948;DHT22;9099;47.958;11.366;2022-08-04T08:29:55;30.60;99.90
17948;DHT22;9099;47.958;11.366;2022-08-04T08:32:22;30.80;99.90
17948;DHT22;9099;47.958;11.366;2022-08-04T08:34:49;30.90;99.90
17948;DHT22;9099;47.958;11.366;2022-08-04T08:37:22;31.20;99.90
17948;DHT22;9099;47.958;11.366;2022-08-04T08:39:56;31.40;99.90
17948;DHT22;9099;47.958;11.366;2022-08-04T08:42:46;31.50;99.90
17948;DHT22;9099;47.958;11.366;2022-08-04T08:45:54;32.00;99.90
17948;DHT22;9099;47.958;11.366;2022-08-04T08:48:44;32.60;99.90
17948;DHT22;9099;47.958;11.366;2022-08-04T08:51:37;33.10;99.90
17948;DHT22;9099;47.958;11.366;2022-08-04T08:54:30;33.60;99.90
17948;DHT22;9099;47.958;11.366;2022-08-04T08:57:12;34.00;99.90
17948;DHT22;9099;47.958;11.366;2022-08-04T08:59:52;34.30;99.90
17948;DHT22;9099;47.958;11.366;2022-08-04T09:02:41;34.30;99.90
17948;DHT22;9099;47.958;11.366;2022-08-04T09:05:34;34.30;99.90
17948;DHT22;9099;47.958;11.366;2022-08-04T09:08:18;34.40;99.90
17948;DHT22;9099;47.958;11.366;2022-08-04T09:10:52;34.80;99.90
17948;DHT22;9099;47.958;11.366;2022-08-04T09:13:22;35.10;99.90
17948;DHT22;9099;47.958;11.366;2022-08-04T09:15:58;35.60;99.90
17948;DHT22;9099;47.958;11.366;2022-08-04T09:18:35;35.80;99.50
17948;DHT22;9099;47.958;11.366;2022-08-04T09:21:09;36.10;98.00
17948;DHT22;9099;47.958;11.366;2022-08-04T09:23:44;36.50;96.90
17948;DHT22;9099;47.958;11.366;2022-08-04T09:26:19;36.80;96.30
17948;DHT22;9099;47.958;11.366;2022-08-04T09:28:52;36.90;97.90
17948;DHT22;9099;47.958;11.366;2022-08-04T09:31:22;37.30;97.60
17948;DHT22;9099;47.958;11.366;2022-08-04T09:33:58;37.70;95.80
17948;DHT22;9099;47.958;11.366;2022-08-04T09:36:31;37.90;96.70
17948;DHT22;9099;47.958;11.366;2022-08-04T09:39:09;38.30;94.90
17948;DHT22;9099;47.958;11.366;2022-08-04T09:41:44;38.30;95.10
17948;DHT22;9099;47.958;11.366;2022-08-04T09:44:20;38.30;94.90
17948;DHT22;9099;47.958;11.366;2022-08-04T09:46:54;38.60;95.00
17948;DHT22;9099;47.958;11.366;2022-08-04T09:49:30;38.70;94.00
17948;DHT22;9099;47.958;11.366;2022-08-04T09:52:06;39.00;93.20
17948;DHT22;9099;47.958;11.366;2022-08-04T09:54:44;39.30;93.70
17948;DHT22;9099;47.958;11.366;2022-08-04T09:57:19;39.60;92.10
17948;DHT22;9099;47.958;11.366;2022-08-04T09:59:53;39.90;93.60
17948;DHT22;9099;47.958;11.366;2022-08-04T10:02:23;40.00;91.00
17948;DHT22;9099;47.958;11.366;2022-08-04T10:04:54;39.90;92.50
17948;DHT22;9099;47.958;11.366;2022-08-04T10:07:43;39.60;91.90
17948;DHT22;9099;47.958;11.366;2022-08-04T10:10:32;39.60;92.10
17948;DHT22;9099;47.958;11.366;2022-08-04T10:13:22;39.70;89.90
17948;DHT22;9099;47.958;11.366;2022-08-04T10:16:00;40.10;90.00
17948;DHT22;9099;47.958;11.366;2022-08-04T10:18:43;40.00;89.50
17948;DHT22;9099;47.958;11.366;2022-08-04T10:21:18;40.10;87.80
17948;DHT22;9099;47.958;11.366;2022-08-04T10:26:44;40.30;84.60
17948;DHT22;9099;47.958;11.366;2022-08-04T10:29:15;40.30;85.50
17948;DHT22;9099;47.958;11.366;2022-08-04T10:31:47;40.10;86.60
17948;DHT22;9099;47.958;11.366;2022-08-04T10:34:19;40.00;88.00
17948;DHT22;9099;47.958;11.366;2022-08-04T10:36:56;40.10;87.70
17948;DHT22;9099;47.958;11.366;2022-08-04T10:39:31;40.10;85.60
17948;DHT22;9099;47.958;11.366;2022-08-04T10:42:08;40.20;87.20
17948;DHT22;9099;47.958;11.366;2022-08-04T10:44:46;40.30;83.80
17948;DHT22;9099;47.958;11.366;2022-08-04T10:47:17;40.20;84.50
17948;DHT22;9099;47.958;11.366;2022-08-04T10:49:47;40.10;84.80
17948;DHT22;9099;47.958;11.366;2022-08-04T10:52:23;40.30;86.00
17948;DHT22;9099;47.958;11.366;2022-08-04T10:54:59;40.60;89.10
17948;DHT22;9099;47.958;11.366;2022-08-04T10:57:33;40.80;88.00
17948;DHT22;9099;47.958;11.366;2022-08-04T11:00:05;40.60;87.20
17948;DHT22;9099;47.958;11.366;2022-08-04T11:02:39;40.60;90.30
17948;DHT22;9099;47.958;11.366;2022-08-04T11:05:28;40.50;90.10
17948;DHT22;9099;47.958;11.366;2022-08-04T11:08:01;40.50;90.70
17948;DHT22;9099;47.958;11.366;2022-08-04T11:10:34;40.60;90.70
17948;DHT22;9099;47.958;11.366;2022-08-04T11:13:06;40.80;87.80
17948;DHT22;9099;47.958;11.366;2022-08-04T11:15:38;40.80;90.40
17948;DHT22;9099;47.958;11.366;2022-08-04T11:18:12;40.80;88.50
17948;DHT22;9099;47.958;11.366;2022-08-04T11:20:43;40.80;90.30
17948;DHT22;9099;47.958;11.366;2022-08-04T11:23:15;40.70;89.20
17948;DHT22;9099;47.958;11.366;2022-08-04T11:25:51;40.50;90.70
17948;DHT22;9099;47.958;11.366;2022-08-04T11:28:27;40.20;90.10
17948;DHT22;9099;47.958;11.366;2022-08-04T11:31:03;40.40;90.40
17948;DHT22;9099;47.958;11.366;2022-08-04T11:33:35;40.30;87.70
17948;DHT22;9099;47.958;11.366;2022-08-04T11:36:09;40.10;88.50
17948;DHT22;9099;47.958;11.366;2022-08-04T11:38:46;39.70;88.80
17948;DHT22;9099;47.958;11.366;2022-08-04T11:41:18;39.50;87.00
17948;DHT22;9099;47.958;11.366;2022-08-04T11:43:52;39.40;86.40
17948;DHT22;9099;47.958;11.366;2022-08-04T11:46:23;39.20;87.70
17948;DHT22;9099;47.958;11.366;2022-08-04T11:48:57;39.20;89.80
17948;DHT22;9099;47.958;11.366;2022-08-04T11:51:27;39.40;85.20
17948;DHT22;9099;47.958;11.366;2022-08-04T11:53:56;39.30;84.50
17948;DHT22;9099;47.958;11.366;2022-08-04T11:56:23;39.20;83.20
17948;DHT22;9099;47.958;11.366;2022-08-04T11:58:51;39.40;84.60
17948;DHT22;9099;47.958;11.366;2022-08-04T12:01:25;39.30;83.20
17948;DHT22;9099;47.958;11.366;2022-08-04T12:04:01;39.30;85.20
17948;DHT22;9099;47.958;11.366;2022-08-04T12:06:35;39.20;85.50
17948;DHT22;9099;47.958;11.366;2022-08-04T12:09:19;39.10;81.60
17948;DHT22;9099;47.958;11.366;2022-08-04T12:11:52;38.90;79.80
17948;DHT22;9099;47.958;11.366;2022-08-04T12:14:25;38.70;82.40
17948;DHT22;9099;47.958;11.366;2022-08-04T12:16:57;38.70;80.50
17948;DHT22;9099;47.958;11.366;2022-08-04T12:19:29;38.70;81.60
17948;DHT22;9099;47.958;11.366;2022-08-04T12:22:00;38.70;82.10
17948;DHT22;9099;47.958;11.366;2022-08-04T12:24:34;38.90;84.90
17948;DHT22;9099;47.958;11.366;2022-08-04T12:27:07;38.90;81.80
17948;DHT22;9099;47.958;11.366;2022-08-04T12:29:39;38.70;87.40
17948;DHT22;9099;47.958;11.366;2022-08-04T12:32:17;38.80;81.90
17948;DHT22;9099;47.958;11.366;2022-08-04T12:35:02;38.90;85.30
17948;DHT22;9099;47.958;11.366;2022-08-04T12:37:40;38.70;82.20
17948;DHT22;9099;47.958;11.366;2022-08-04T12:40:14;38.50;84.90
17948;DHT22;9099;47.958;11.366;2022-08-04T12:42:46;38.50;81.00
17948;DHT22;9099;47.958;11.366;2022-08-04T12:45:17;38.40;83.50
17948;DHT22;9099;47.958;11.366;2022-08-04T12:47:45;38.30;86.50
17948;DHT22;9099;47.958;11.366;2022-08-04T12:50:13;38.30;86.00
17948;DHT22;9099;47.958;11.366;2022-08-04T12:52:45;38.50;85.40
17948;DHT22;9099;47.958;11.366;2022-08-04T12:55:15;38.50;88.00
17948;DHT22;9099;47.958;11.366;2022-08-04T12:57:43;38.70;87.80
17948;DHT22;9099;47.958;11.366;2022-08-04T13:00:22;38.90;85.40
17948;DHT22;9099;47.958;11.366;2022-08-04T13:02:51;38.70;84.20
17948;DHT22;9099;47.958;11.366;2022-08-04T13:05:20;38.90;88.10
17948;DHT22;9099;47.958;11.366;2022-08-04T13:07:49;38.90;86.70
17948;DHT22;9099;47.958;11.366;2022-08-04T13:10:21;38.70;88.00
17948;DHT22;9099;47.958;11.366;2022-08-04T13:12:55;38.80;83.50
17948;DHT22;9099;47.958;11.366;2022-08-04T13:15:23;38.80;81.30
17948;DHT22;9099;47.958;11.366;2022-08-04T13:17:54;39.00;82.40
17948;DHT22;9099;47.958;11.366;2022-08-04T13:20:28;38.90;87.70
17948;DHT22;9099;47.958;11.366;2022-08-04T13:23:03;38.90;85.70
17948;DHT22;9099;47.958;11.366;2022-08-04T13:25:32;38.70;85.60
17948;DHT22;9099;47.958;11.366;2022-08-04T13:27:59;38.30;86.20
17948;DHT22;9099;47.958;11.366;2022-08-04T13:30:27;38.20;83.20
17948;DHT22;9099;47.958;11.366;2022-08-04T13:32:59;37.80;87.80
17948;DHT22;9099;47.958;11.366;2022-08-04T13:35:27;37.80;88.60
17948;DHT22;9099;47.958;11.366;2022-08-04T13:37:55;38.20;90.30
17948;DHT22;9099;47.958;11.366;2022-08-04T13:40:25;38.50;90.50
17948;DHT22;9099;47.958;11.366;2022-08-04T13:42:54;38.60;87.00
17948;DHT22;9099;47.958;11.366;2022-08-04T13:45:22;38.50;84.70
17948;DHT22;9099;47.958;11.366;2022-08-04T13:47:55;38.60;88.30
17948;DHT22;9099;47.958;11.366;2022-08-04T13:50:25;38.60;88.20
17948;DHT22;9099;47.958;11.366;2022-08-04T13:52:55;38.40;87.30
17948;DHT22;9099;47.958;11.366;2022-08-04T13:55:27;38.50;88.70
17948;DHT22;9099;47.958;11.366;2022-08-04T13:57:58;38.60;81.40
17948;DHT22;9099;47.958;11.366;2022-08-04T14:00:40;38.80;84.90
17948;DHT22;9099;47.958;11.366;2022-08-04T14:03:09;38.70;85.10
17948;DHT22;9099;47.958;11.366;2022-08-04T14:05:37;38.60;80.90
17948;DHT22;9099;47.958;11.366;2022-08-04T14:08:06;38.30;83.90
17948;DHT22;9099;47.958;11.366;2022-08-04T14:10:34;38.40;82.00
17948;DHT22;9099;47.958;11.366;2022-08-04T14:13:05;38.50;81.30
17948;DHT22;9099;47.958;11.366;2022-08-04T14:15:37;38.50;80.30
17948;DHT22;9099;47.958;11.366;2022-08-04T14:18:19;38.40;83.80
17948;DHT22;9099;47.958;11.366;2022-08-04T14:20:58;38.20;81.00
17948;DHT22;9099;47.958;11.366;2022-08-04T14:23:25;38.20;85.40
17948;DHT22;9099;47.958;11.366;2022-08-04T14:25:52;38.20;84.00
17948;DHT22;9099;47.958;11.366;2022-08-04T14:28:30;38.10;84.50
17948;DHT22;9099;47.958;11.366;2022-08-04T14:31:08;37.80;85.10
17948;DHT22;9099;47.958;11.366;2022-08-04T14:33:37;37.90;87.50
17948;DHT22;9099;47.958;11.366;2022-08-04T14:36:04;37.90;83.60
17948;DHT22;9099;47.958;11.366;2022-08-04T14:38:45;37.90;85.40
17948;DHT22;9099;47.958;11.366;2022-08-04T14:41:13;37.60;82.80
17948;DHT22;9099;47.958;11.366;2022-08-04T14:43:43;37.50;87.90
17948;DHT22;9099;47.958;11.366;2022-08-04T14:46:10;37.20;84.80
17948;DHT22;9099;47.958;11.366;2022-08-04T14:48:38;36.90;83.30
17948;DHT22;9099;47.958;11.366;2022-08-04T14:51:11;36.70;88.10
17948;DHT22;9099;47.958;11.366;2022-08-04T14:53:39;36.80;88.70
17948;DHT22;9099;47.958;11.366;2022-08-04T14:56:07;36.90;88.20
17948;DHT22;9099;47.958;11.366;2022-08-04T14:58:34;36.90;86.80
17948;DHT22;9099;47.958;11.366;2022-08-04T15:01:04;36.80;82.10
17948;DHT22;9099;47.958;11.366;2022-08-04T15:03:32;36.70;88.70
17948;DHT22;9099;47.958;11.366;2022-08-04T15:06:00;36.90;84.70
17948;DHT22;9099;47.958;11.366;2022-08-04T15:08:27;36.90;85.90
17948;DHT22;9099;47.958;11.366;2022-08-04T15:10:56;36.90;84.50
17948;DHT22;9099;47.958;11.366;2022-08-04T15:13:24;37.00;84.60
17948;DHT22;9099;47.958;11.366;2022-08-04T15:15:51;37.10;88.60
17948;DHT22;9099;47.958;11.366;2022-08-04T15:18:20;37.10;88.70
17948;DHT22;9099;47.958;11.366;2022-08-04T15:20:47;37.00;88.90
17948;DHT22;9099;47.958;11.366;2022-08-04T15:23:14;36.90;89.20
17948;DHT22;9099;47.958;11.366;2022-08-04T15:25:46;36.80;85.40
17948;DHT22;9099;47.958;11.366;2022-08-04T15:28:16;36.70;87.50
17948;DHT22;9099;47.958;11.366;2022-08-04T15:30:46;36.70;88.80
17948;DHT22;9099;47.958;11.366;2022-08-04T15:33:14;36.40;89.70
17948;DHT22;9099;47.958;11.366;2022-08-04T15:35:47;36.40;89.20
17948;DHT22;9099;47.958;11.366;2022-08-04T15:38:24;36.40;88.90
17948;DHT22;9099;47.958;11.366;2022-08-04T15:40:57;36.40;88.40
17948;DHT22;9099;47.958;11.366;2022-08-04T15:43:42;36.50;86.60
17948;DHT22;9099;47.958;11.366;2022-08-04T15:46:11;36.50;84.00
17948;DHT22;9099;47.958;11.366;2022-08-04T15:48:38;36.40;86.50
17948;DHT22;9099;47.958;11.366;2022-08-04T15:51:08;36.30;85.40
17948;DHT22;9099;47.958;11.366;2022-08-04T15:56:48;36.10;90.30
17948;DHT22;9099;47.958;11.366;2022-08-04T15:59:16;36.10;84.70
17948;DHT22;9099;47.958;11.366;2022-08-04T16:02:36;36.10;84.60
17948;DHT22;9099;47.958;11.366;2022-08-04T16:05:31;36.00;89.70
17948;DHT22;9099;47.958;11.366;2022-08-04T16:08:09;36.00;90.80
17948;DHT22;9099;47.958;11.366;2022-08-04T16:10:37;36.00;90.40
17948;DHT22;9099;47.958;11.366;2022-08-04T16:13:06;35.90;88.60
17948;DHT22;9099;47.958;11.366;2022-08-04T16:15:41;35.90;90.60
17948;DHT22;9099;47.958;11.366;2022-08-04T16:18:09;35.80;89.30
17948;DHT22;9099;47.958;11.366;2022-08-04T16:20:37;35.60;90.20
17948;DHT22;9099;47.958;11.366;2022-08-04T16:23:20;35.60;88.00
17948;DHT22;9099;47.958;11.366;2022-08-04T16:25:52;35.40;88.00
17948;DHT22;9099;47.958;11.366;2022-08-04T16:28:46;35.30;85.10
17948;DHT22;9099;47.958;11.366;2022-08-04T16:31:13;35.20;86.60
17948;DHT22;9099;47.958;11.366;2022-08-04T16:33:40;35.30;85.70
17948;DHT22;9099;47.958;11.366;2022-08-04T16:36:10;35.30;85.70
17948;DHT22;9099;47.958;11.366;2022-08-04T16:39:12;35.20;89.40
17948;DHT22;9099;47.958;11.366;2022-08-04T16:41:43;35.10;87.90
17948;DHT22;9099;47.958;11.366;2022-08-04T16:44:30;35.00;87.70
17948;DHT22;9099;47.958;11.366;2022-08-04T16:46:59;34.80;88.40
17948;DHT22;9099;47.958;11.366;2022-08-04T16:49:27;34.60;86.90
17948;DHT22;9099;47.958;11.366;2022-08-04T16:52:00;34.40;87.80
17948;DHT22;9099;47.958;11.366;2022-08-04T16:54:30;34.30;86.20
17948;DHT22;9099;47.958;11.366;2022-08-04T16:56:57;34.30;86.10